Teton, Idaho
Current Conditions -  °F | °C
As of 9:53 PM on Thursday 30 Oct 2014 (Local Time) from KRXE Reporting Station
Clear Clear  
Wind Chill: 38°   Ceiling: Unl
Heat Index: 42°   Visibility: 10mi
Dew Point: 31°   Wind: 7mph
Humidity: 65%   Direction: 40°NE
Pressure: 30.14"   Gusts: NA
Location:  43.89°N, 111.68°W
Report Text: KRXE 310353Z AUTO 04006KT 10SM CLR 06/M01 A3014 RMK AO2 SLP209 T00561006
Loading
Personal Weather Stations






























Interactive Weather Map
Tropical Storm Tracking
New forecast layout! Learn more

10-Day Weather Forecast

Advertisements
Track Severe Weather on mobile